createdAt,value
2018-09-18T04:00:55.178Z,72.70
2018-09-18T04:03:23.334Z,72.60
2018-09-18T04:05:51.487Z,72.60
2018-09-18T04:08:19.677Z,72.90
2018-09-18T04:10:47.836Z,72.80
2018-09-18T04:13:15.990Z,72.70
2018-09-18T04:15:44.184Z,72.60
2018-09-18T04:18:14.476Z,72.70
2018-09-18T04:20:42.751Z,72.90
2018-09-18T04:23:10.932Z,73.20
2018-09-18T04:25:39.091Z,73.40
2018-09-18T04:28:07.249Z,73.70
2018-09-18T04:30:35.452Z,73.80
2018-09-18T04:33:03.581Z,73.80
2018-09-18T04:35:31.712Z,74.00
2018-09-18T04:37:59.905Z,74.00
2018-09-18T04:40:28.063Z,73.70
2018-09-18T04:42:56.198Z,73.30
2018-09-18T04:45:24.376Z,73.00
2018-09-18T04:47:52.592Z,73.00
2018-09-18T04:50:20.745Z,72.60
2018-09-18T04:52:49.001Z,72.70
2018-09-18T04:55:17.433Z,72.70
2018-09-18T04:57:45.661Z,73.10
2018-09-18T05:00:13.834Z,73.10
2018-09-18T05:02:42.060Z,72.60
2018-09-18T05:05:10.210Z,73.20
2018-09-18T05:07:38.385Z,72.60
2018-09-18T05:10:06.559Z,73.00
2018-09-18T05:12:34.740Z,73.20
2018-09-18T05:15:02.904Z,72.80
2018-09-18T05:17:31.054Z,73.50
2018-09-18T05:19:59.302Z,72.80
2018-09-18T05:22:27.509Z,72.70
2018-09-18T05:24:55.657Z,72.80
2018-09-18T05:27:23.796Z,72.80
2018-09-18T05:29:51.971Z,72.90
2018-09-18T05:32:20.129Z,72.90
2018-09-18T05:34:48.572Z,73.00
2018-09-18T05:37:16.729Z,72.50
2018-09-18T05:39:44.860Z,72.60
2018-09-18T05:42:12.978Z,71.90
2018-09-18T05:44:41.137Z,71.90
2018-09-18T05:47:10.642Z,72.40
2018-09-18T05:49:38.780Z,71.60
2018-09-18T05:52:06.995Z,71.60
2018-09-18T05:54:35.522Z,71.30
2018-09-18T05:57:03.670Z,71.00
2018-09-18T05:59:31.869Z,71.00
2018-09-18T06:02:00.013Z,70.20
2018-09-18T06:04:28.173Z,70.90
2018-09-18T06:06:56.343Z,70.20
2018-09-18T06:09:24.524Z,69.80
2018-09-18T06:11:52.668Z,69.50
2018-09-18T06:14:20.843Z,69.80
2018-09-18T06:16:48.984Z,68.60
2018-09-18T06:19:17.136Z,68.10
2018-09-18T06:21:45.305Z,68.50
2018-09-18T06:24:13.465Z,68.30
2018-09-18T06:26:41.611Z,68.70
2018-09-18T06:29:09.787Z,67.90
2018-09-18T06:31:37.999Z,68.50
2018-09-18T06:34:06.136Z,68.60
2018-09-18T06:36:34.338Z,67.90
2018-09-18T06:39:02.493Z,68.00
2018-09-18T06:41:30.664Z,67.60
2018-09-18T06:43:58.858Z,67.40
2018-09-18T06:46:27.003Z,68.30
2018-09-18T06:48:55.155Z,68.00
2018-09-18T06:51:23.386Z,67.40
2018-09-18T06:53:51.564Z,68.90
2018-09-18T06:56:19.735Z,68.10
2018-09-18T06:58:47.925Z,67.20
2018-09-18T07:01:16.080Z,67.40
2018-09-18T07:03:44.280Z,67.40
2018-09-18T07:06:12.448Z,66.90
2018-09-18T07:08:40.595Z,67.00
2018-09-18T07:11:08.767Z,65.90
2018-09-18T07:13:37.432Z,65.60
2018-09-18T07:16:05.620Z,65.80
2018-09-18T07:18:33.765Z,65.70
2018-09-18T07:21:01.933Z,65.00
2018-09-18T07:23:30.094Z,65.60
2018-09-18T07:26:05.096Z,64.30
2018-09-18T07:28:33.241Z,64.50
2018-09-18T07:31:01.447Z,64.70
2018-09-18T07:33:29.620Z,64.00
2018-09-18T07:35:57.807Z,63.30
2018-09-18T07:38:25.944Z,63.10
2018-09-18T07:40:54.135Z,62.70
2018-09-18T07:43:22.229Z,62.30
2018-09-18T07:45:50.364Z,62.60
2018-09-18T07:48:18.516Z,62.80
2018-09-18T07:50:46.653Z,62.70
2018-09-18T07:53:14.788Z,61.80
2018-09-18T07:55:42.952Z,62.00
2018-09-18T07:58:11.140Z,63.00
2018-09-18T08:00:39.376Z,61.00
2018-09-18T08:03:07.633Z,60.90
2018-09-18T08:05:36.025Z,61.40
2018-09-18T08:08:04.169Z,60.20
2018-09-18T08:10:32.361Z,60.30
2018-09-18T08:13:00.499Z,60.00
2018-09-18T08:15:28.657Z,59.70
2018-09-18T08:17:56.847Z,59.40
2018-09-18T08:20:24.993Z,59.00
2018-09-18T08:22:53.143Z,59.10
2018-09-18T08:25:21.372Z,59.10
2018-09-18T08:27:49.772Z,58.70
2018-09-18T08:30:17.988Z,58.50
2018-09-18T08:32:46.218Z,58.50
2018-09-18T08:35:14.309Z,58.20
2018-09-18T08:37:42.513Z,58.10
2018-09-18T08:40:10.742Z,58.00
2018-09-18T08:42:38.868Z,57.60
2018-09-18T08:45:07.107Z,57.40
2018-09-18T08:47:35.589Z,57.70
2018-09-18T08:50:03.751Z,57.20
2018-09-18T08:52:31.894Z,57.30
2018-09-18T08:55:00.082Z,56.80
2018-09-18T08:57:28.220Z,56.70
2018-09-18T08:59:56.384Z,57.00
2018-09-18T09:02:24.595Z,56.70
2018-09-18T09:04:52.826Z,56.60
2018-09-18T09:07:20.976Z,56.20
2018-09-18T09:09:49.155Z,55.90
2018-09-18T09:12:17.331Z,55.70
2018-09-18T09:14:45.609Z,55.50
2018-09-18T09:17:13.667Z,55.30
2018-09-18T09:19:41.825Z,55.30
2018-09-18T09:22:10.064Z,55.10
2018-09-18T09:24:38.202Z,54.90
2018-09-18T09:27:06.357Z,54.60
2018-09-18T09:29:34.588Z,54.60
2018-09-18T09:32:02.805Z,54.30
2018-09-18T09:34:30.936Z,54.10
2018-09-18T09:36:59.157Z,54.00
2018-09-18T09:39:27.300Z,53.50
2018-09-18T09:41:55.451Z,53.40
2018-09-18T09:44:23.592Z,53.50
2018-09-18T09:46:51.744Z,53.10
2018-09-18T09:49:19.885Z,52.10
2018-09-18T09:51:48.030Z,52.60
2018-09-18T09:54:16.192Z,52.30
2018-09-18T09:56:44.366Z,52.40
2018-09-18T09:59:12.470Z,52.00
2018-09-18T10:01:42.806Z,51.80
2018-09-18T10:04:10.937Z,51.70
2018-09-18T10:06:39.065Z,51.40
2018-09-18T10:09:09.410Z,50.30
2018-09-18T10:11:37.568Z,50.30
2018-09-18T10:14:05.717Z,49.70
2018-09-18T10:16:33.881Z,49.30
2018-09-18T10:19:02.035Z,49.40
2018-09-18T10:21:30.271Z,48.70
2018-09-18T10:23:58.435Z,49.30
2018-09-18T10:26:26.706Z,48.80
2018-09-18T10:28:54.799Z,48.70
2018-09-18T10:31:22.983Z,48.80
2018-09-18T10:33:51.204Z,48.80
2018-09-18T10:36:19.357Z,48.50
2018-09-18T10:38:47.535Z,48.70
2018-09-18T10:41:15.748Z,48.80
2018-09-18T10:43:43.883Z,48.10
2018-09-18T10:46:12.087Z,48.10
2018-09-18T10:48:45.598Z,47.70
2018-09-18T10:51:13.743Z,46.80
2018-09-18T10:53:41.902Z,47.10
2018-09-18T10:56:10.081Z,46.60
2018-09-18T10:58:38.248Z,46.60
2018-09-18T11:01:06.647Z,46.80
2018-09-18T11:03:34.826Z,45.80
2018-09-18T11:06:03.051Z,46.30
2018-09-18T11:08:31.297Z,45.80
2018-09-18T11:10:59.429Z,45.00
2018-09-18T11:13:27.653Z,43.80
2018-09-18T11:15:55.893Z,44.60
2018-09-18T11:18:24.067Z,45.30
2018-09-18T11:20:52.274Z,44.70
2018-09-18T11:23:20.427Z,44.50
2018-09-18T11:25:48.576Z,43.80
2018-09-18T11:28:16.757Z,43.70
2018-09-18T11:30:44.934Z,43.70
2018-09-18T11:33:13.076Z,43.10
2018-09-18T11:35:41.827Z,43.00
2018-09-18T11:38:09.948Z,43.10
2018-09-18T11:40:38.089Z,41.80
2018-09-18T11:43:06.257Z,40.80
2018-09-18T11:45:34.522Z,40.50
2018-09-18T11:48:02.665Z,41.30
2018-09-18T11:50:30.833Z,41.80
2018-09-18T11:52:59.769Z,41.70
2018-09-18T11:55:27.935Z,42.70
2018-09-18T11:57:56.458Z,42.80
2018-09-18T12:00:24.667Z,42.30
2018-09-18T12:02:53.217Z,41.70
2018-09-18T12:05:21.425Z,41.30
2018-09-18T12:07:49.613Z,40.60
2018-09-18T12:10:17.743Z,39.70
2018-09-18T12:12:45.918Z,40.30
2018-09-18T12:15:14.053Z,40.20
2018-09-18T12:17:42.212Z,40.50
2018-09-18T12:20:10.909Z,39.50
2018-09-18T12:22:39.102Z,39.80
2018-09-18T12:25:07.257Z,39.30
2018-09-18T12:27:35.469Z,39.50
2018-09-18T12:30:03.641Z,39.60
2018-09-18T12:32:31.779Z,39.20
2018-09-18T12:34:59.931Z,38.80
2018-09-18T12:37:28.073Z,39.40
2018-09-18T12:39:56.225Z,38.50
2018-09-18T12:42:24.396Z,38.80
2018-09-18T12:44:52.546Z,39.00
2018-09-18T12:47:20.694Z,38.60
2018-09-18T12:49:49.016Z,38.90
2018-09-18T12:52:17.068Z,38.10
2018-09-18T12:54:45.319Z,37.20
2018-09-18T12:57:13.734Z,37.90
2018-09-18T12:59:41.717Z,37.20
2018-09-18T13:02:09.888Z,37.10
2018-09-18T13:04:38.096Z,37.10
2018-09-18T13:07:06.435Z,37.10
2018-09-18T13:09:34.481Z,36.30
2018-09-18T13:12:02.662Z,36.70
2018-09-18T13:14:30.812Z,37.00
2018-09-18T13:16:58.940Z,36.40
2018-09-18T13:19:27.315Z,37.00
2018-09-18T13:21:55.577Z,36.20
2018-09-18T13:24:23.732Z,35.80
2018-09-18T13:26:52.083Z,36.00
2018-09-18T13:29:20.220Z,35.50
2018-09-18T13:31:48.380Z,35.30
2018-09-18T13:34:16.562Z,35.00
2018-09-18T13:36:44.724Z,35.20
2018-09-18T13:39:12.869Z,35.40
2018-09-18T13:41:41.090Z,34.50
2018-09-18T13:44:09.243Z,34.50
2018-09-18T13:46:37.470Z,34.50
2018-09-18T13:49:05.635Z,34.20
2018-09-18T13:51:33.737Z,34.30
2018-09-18T13:54:01.897Z,33.50
2018-09-18T13:56:30.171Z,34.40
2018-09-18T13:58:58.257Z,34.00
2018-09-18T14:01:26.490Z,34.10
2018-09-18T14:03:54.645Z,34.30
2018-09-18T14:06:22.781Z,35.10
2018-09-18T14:08:50.935Z,34.00
2018-09-18T14:11:19.107Z,33.50
2018-09-18T14:13:47.262Z,33.40
2018-09-18T14:16:15.412Z,33.90
2018-09-18T14:18:43.583Z,34.00
2018-09-18T14:21:11.725Z,34.50
2018-09-18T14:23:39.918Z,34.50
2018-09-18T14:26:08.108Z,34.10
2018-09-18T14:28:36.301Z,35.00
2018-09-18T14:31:04.454Z,35.00
2018-09-18T14:33:32.616Z,35.20
2018-09-18T14:36:01.895Z,34.90
2018-09-18T14:38:30.040Z,35.30
2018-09-18T14:40:58.329Z,35.30
2018-09-18T14:43:26.501Z,35.50
2018-09-18T14:45:54.652Z,35.30
2018-09-18T14:48:22.873Z,36.10
2018-09-18T14:50:51.053Z,35.60
2018-09-18T14:53:19.265Z,35.80
2018-09-18T14:55:47.585Z,35.70
2018-09-18T14:58:15.775Z,35.70
2018-09-18T15:00:43.958Z,36.30
2018-09-18T15:03:12.177Z,36.60
2018-09-18T15:05:44.344Z,35.10
2018-09-18T15:08:12.547Z,35.30
2018-09-18T15:10:40.699Z,36.00
2018-09-18T15:13:08.860Z,35.20
2018-09-18T15:15:37.126Z,35.00
2018-09-18T15:18:05.313Z,35.30
2018-09-18T15:20:33.549Z,35.10
2018-09-18T15:23:01.722Z,36.20
2018-09-18T15:25:29.868Z,35.70
2018-09-18T15:27:58.029Z,36.00
2018-09-18T15:30:26.184Z,35.50
2018-09-18T15:32:54.346Z,36.00
2018-09-18T15:35:22.469Z,36.40
2018-09-18T15:37:50.630Z,36.40
2018-09-18T15:40:18.789Z,36.60
2018-09-18T15:42:46.947Z,36.90
2018-09-18T15:45:15.117Z,36.70
2018-09-18T15:47:43.268Z,37.20
2018-09-18T15:50:11.447Z,37.10
2018-09-18T15:52:39.609Z,37.40
2018-09-18T15:55:07.776Z,38.20
2018-09-18T15:57:35.942Z,38.50
2018-09-18T16:00:04.148Z,38.80
2018-09-18T16:02:32.348Z,38.70
2018-09-18T16:05:00.549Z,38.90
2018-09-18T16:07:28.716Z,39.00
2018-09-18T16:09:56.953Z,39.30
2018-09-18T16:12:25.039Z,39.50
2018-09-18T16:14:53.294Z,39.60
2018-09-18T16:17:21.364Z,39.80
2018-09-18T16:19:49.621Z,40.20
2018-09-18T16:22:17.784Z,40.60
2018-09-18T16:24:46.009Z,40.80
2018-09-18T16:27:14.183Z,41.20
2018-09-18T16:29:42.413Z,40.90
2018-09-18T16:32:10.585Z,41.30
2018-09-18T16:34:38.776Z,41.40
2018-09-18T16:37:07.061Z,41.90
2018-09-18T16:39:35.233Z,42.00
2018-09-18T16:42:03.389Z,42.20
2018-09-18T16:44:31.583Z,42.60
2018-09-18T16:46:59.996Z,42.80
2018-09-18T16:49:28.057Z,43.10
2018-09-18T16:51:56.218Z,43.50
2018-09-18T16:54:24.588Z,44.00
2018-09-18T16:56:52.748Z,43.80
2018-09-18T16:59:21.270Z,44.90
2018-09-18T17:01:49.527Z,44.60
2018-09-18T17:04:17.763Z,44.70
2018-09-18T17:06:46.054Z,45.30
2018-09-18T17:09:14.225Z,45.50
2018-09-18T17:11:42.369Z,45.80
2018-09-18T17:14:10.583Z,46.10
2018-09-18T17:16:38.873Z,46.30
2018-09-18T17:19:06.987Z,46.60
2018-09-18T17:21:35.156Z,46.90
2018-09-18T17:24:03.392Z,47.20
2018-09-18T17:26:31.564Z,47.40
2018-09-18T17:28:59.885Z,47.50
2018-09-18T17:31:28.150Z,47.70
2018-09-18T17:33:56.324Z,48.00
2018-09-18T17:36:24.577Z,48.50
2018-09-18T17:38:52.922Z,48.60
2018-09-18T17:41:21.127Z,48.80
2018-09-18T17:43:49.302Z,49.30
2018-09-18T17:46:17.456Z,49.50
2018-09-18T17:48:45.603Z,50.20
2018-09-18T17:51:13.827Z,50.70
2018-09-18T17:53:42.018Z,51.00
2018-09-18T17:56:10.177Z,51.10
2018-09-18T17:58:38.441Z,52.10
2018-09-18T18:01:06.628Z,52.70
2018-09-18T18:03:34.935Z,52.70
2018-09-18T18:06:03.142Z,53.40
2018-09-18T18:08:31.317Z,53.50
2018-09-18T18:10:59.508Z,54.40
2018-09-18T18:13:27.669Z,55.00
2018-09-18T18:15:55.848Z,55.30
2018-09-18T18:18:24.051Z,56.00
2018-09-18T18:20:52.276Z,56.80
2018-09-18T18:23:20.416Z,57.10
2018-09-18T18:25:48.631Z,57.60
2018-09-18T18:28:16.792Z,57.30
2018-09-18T18:30:45.033Z,57.20
2018-09-18T18:33:13.184Z,56.90
2018-09-18T18:35:41.514Z,56.80
2018-09-18T18:38:09.549Z,56.90
2018-09-18T18:40:37.706Z,56.70
2018-09-18T18:43:05.892Z,56.40
2018-09-18T18:45:34.117Z,56.90
2018-09-18T18:48:02.461Z,56.20
2018-09-18T18:50:30.522Z,56.60
2018-09-18T18:52:58.660Z,55.90
2018-09-18T18:55:26.902Z,56.00
2018-09-18T18:57:55.076Z,55.90
2018-09-18T19:00:23.324Z,56.00
2018-09-18T19:02:51.552Z,56.00
2018-09-18T19:05:19.726Z,56.00
2018-09-18T19:07:54.684Z,56.00
2018-09-18T19:10:22.912Z,56.10
2018-09-18T19:12:51.167Z,56.30
2018-09-18T19:15:19.474Z,56.20
2018-09-18T19:17:47.754Z,56.60
2018-09-18T19:20:16.025Z,56.60
2018-09-18T19:22:44.240Z,56.80
2018-09-18T19:25:12.486Z,57.00
2018-09-18T19:27:40.707Z,57.20
2018-09-18T19:30:08.944Z,57.50
2018-09-18T19:32:37.168Z,58.00
2018-09-18T19:35:05.316Z,58.50
2018-09-18T19:37:33.495Z,58.30
2018-09-18T19:40:01.723Z,58.90
2018-09-18T19:42:29.872Z,59.40
2018-09-18T19:44:58.067Z,58.90
2018-09-18T19:47:26.294Z,59.40
2018-09-18T19:49:54.459Z,59.60
2018-09-18T19:52:22.677Z,59.80
2018-09-18T19:54:50.840Z,60.00
2018-09-18T19:57:19.051Z,60.80
2018-09-18T19:59:47.220Z,61.30
2018-09-18T20:02:15.376Z,61.30
2018-09-18T20:04:43.560Z,61.00
2018-09-18T20:07:11.779Z,61.00
2018-09-18T20:09:39.933Z,61.80
2018-09-18T20:12:08.087Z,62.40
2018-09-18T20:14:36.307Z,62.20
2018-09-18T20:17:04.456Z,63.20
2018-09-18T20:19:32.685Z,63.50
2018-09-18T20:22:00.872Z,64.10
2018-09-18T20:24:29.045Z,63.90
2018-09-18T20:26:57.272Z,63.90
2018-09-18T20:29:25.408Z,64.30
2018-09-18T20:31:53.610Z,64.50
2018-09-18T20:34:21.787Z,65.00
2018-09-18T20:36:49.956Z,65.30
2018-09-18T20:39:18.124Z,64.90
2018-09-18T20:41:46.286Z,65.40
2018-09-18T20:44:14.447Z,65.20
2018-09-18T20:46:42.609Z,65.80
2018-09-18T20:49:10.770Z,65.60
2018-09-18T20:51:38.919Z,65.90
2018-09-18T20:54:07.142Z,65.90
2018-09-18T20:56:35.304Z,66.30
2018-09-18T20:59:03.458Z,67.00
